createdAt,value
2023-05-02T00:01:29.168Z,101072.81
2023-05-02T00:03:55.943Z,101063.06
2023-05-02T00:06:22.782Z,101062.22
2023-05-02T00:08:49.597Z,101061.91
2023-05-02T00:11:17.402Z,101056.69
2023-05-02T00:13:43.921Z,101050.25
2023-05-02T00:16:10.423Z,101049.38
2023-05-02T00:18:36.909Z,101057.06
2023-05-02T00:21:03.552Z,101059.63
2023-05-02T00:23:30.033Z,101067.59
2023-05-02T00:25:56.514Z,101064.91
2023-05-02T00:28:24.240Z,101064.75
2023-05-02T00:30:50.765Z,101061.81
2023-05-02T00:33:17.248Z,101058.63
2023-05-02T00:35:43.773Z,101052.06
2023-05-02T00:38:10.544Z,101050.09
2023-05-02T00:40:43.726Z,101048.28
2023-05-02T00:43:10.218Z,101046.34
2023-05-02T00:45:38.303Z,101044.38
2023-05-02T00:48:05.450Z,101043.44
2023-05-02T00:50:34.012Z,101050.50
2023-05-02T00:53:00.758Z,101048.28
2023-05-02T00:55:27.488Z,101049.72
2023-05-02T00:57:54.044Z,101041.56
2023-05-02T01:00:21.168Z,101039.50
2023-05-02T01:02:58.031Z,101038.38
2023-05-02T01:05:28.132Z,101040.13
2023-05-02T01:08:03.141Z,101045.25
2023-05-02T01:10:41.948Z,101038.91
2023-05-02T01:13:10.521Z,101047.94
2023-05-02T01:15:39.378Z,101038.00
2023-05-02T01:18:09.818Z,101039.72
2023-05-02T01:20:39.074Z,101044.03
2023-05-02T01:23:14.065Z,101041.19
2023-05-02T01:25:55.452Z,101040.13
2023-05-02T01:28:35.291Z,101041.81
2023-05-02T01:31:04.627Z,101039.13
2023-05-02T01:33:33.850Z,101046.09
2023-05-02T01:36:01.716Z,101043.88
2023-05-02T01:38:29.936Z,101046.06
2023-05-02T01:40:58.190Z,101039.72
2023-05-02T01:43:25.974Z,101048.50
2023-05-02T01:45:55.516Z,101052.78
2023-05-02T01:48:24.876Z,101050.00
2023-05-02T01:50:52.198Z,101050.97
2023-05-02T01:53:18.928Z,101046.34
2023-05-02T01:55:46.966Z,101047.19
2023-05-02T01:58:15.069Z,101053.88
2023-05-02T02:00:42.597Z,101050.69
2023-05-02T02:03:10.156Z,101054.97
2023-05-02T02:05:39.990Z,101053.88
2023-05-02T02:08:06.620Z,101048.28
2023-05-02T02:10:40.268Z,101049.13
2023-05-02T02:13:13.537Z,101049.03
2023-05-02T02:15:42.123Z,101059.63
2023-05-02T02:18:13.326Z,101054.25
2023-05-02T02:20:44.111Z,101055.84
2023-05-02T02:23:12.008Z,101053.47
2023-05-02T02:25:39.410Z,101055.84
2023-05-02T02:28:07.054Z,101064.59
2023-05-02T02:30:33.644Z,101060.00
2023-05-02T02:33:00.192Z,101056.47
2023-05-02T02:35:31.380Z,101054.50
2023-05-02T02:38:07.632Z,101062.44
2023-05-02T02:40:40.889Z,101065.59
2023-05-02T02:43:13.048Z,101066.03
2023-05-02T02:45:51.070Z,101065.94
2023-05-02T02:48:25.528Z,101066.56
2023-05-02T02:51:03.900Z,101067.28
2023-05-02T02:53:42.200Z,101070.84
2023-05-02T02:56:15.666Z,101074.25
2023-05-02T02:58:53.322Z,101075.09
2023-05-02T03:01:21.211Z,101074.25
2023-05-02T03:03:49.344Z,101078.75
2023-05-02T03:06:16.168Z,101075.81
2023-05-02T03:08:44.764Z,101072.16
2023-05-02T03:11:11.440Z,101080.00
2023-05-02T03:13:37.990Z,101077.31
2023-05-02T03:16:29.636Z,101078.03
2023-05-02T03:18:56.409Z,101077.06
2023-05-02T03:21:22.874Z,101069.03
2023-05-02T03:23:50.717Z,101076.78
2023-05-02T03:26:17.561Z,101068.09
2023-05-02T03:28:44.296Z,101069.72
2023-05-02T03:31:10.763Z,101081.91
2023-05-02T03:33:37.233Z,101079.22
2023-05-02T03:36:04.024Z,101074.63
2023-05-02T03:38:30.599Z,101076.31
2023-05-02T03:40:58.446Z,101077.31
2023-05-02T03:43:24.956Z,101080.72
2023-05-02T03:45:51.607Z,101078.38
2023-05-02T03:48:18.228Z,101076.16
2023-05-02T03:50:44.691Z,101077.75
2023-05-02T03:53:11.220Z,101075.81
2023-05-02T03:55:39.524Z,101077.41
2023-05-02T03:58:08.334Z,101075.56
2023-05-02T04:00:34.785Z,101075.47
2023-05-02T04:03:01.267Z,101071.81
2023-05-02T04:05:27.849Z,101073.16
2023-05-02T04:07:54.537Z,101080.78
2023-05-02T04:10:21.001Z,101078.84
2023-05-02T04:12:47.507Z,101082.28
2023-05-02T04:15:15.378Z,101083.88
2023-05-02T04:17:41.934Z,101087.41
2023-05-02T04:20:09.309Z,101089.97
2023-05-02T04:22:35.844Z,101086.31
2023-05-02T04:25:02.274Z,101085.44
2023-05-02T04:27:28.743Z,101092.47
2023-05-02T04:29:55.292Z,101092.38
2023-05-02T04:32:23.678Z,101096.66
2023-05-02T04:34:50.250Z,101099.22
2023-05-02T04:37:16.766Z,101105.34
2023-05-02T04:39:43.229Z,101097.97
2023-05-02T04:42:09.685Z,101102.53
2023-05-02T04:44:36.165Z,101100.84
2023-05-02T04:47:02.585Z,101104.09
2023-05-02T04:49:30.335Z,101105.44
2023-05-02T04:51:56.954Z,101099.50
2023-05-02T04:54:23.500Z,101097.88
2023-05-02T04:56:49.950Z,101101.81
2023-05-02T04:59:16.470Z,101110.47
2023-05-02T05:01:44.096Z,101120.09
2023-05-02T05:04:10.878Z,101125.25
2023-05-02T05:06:38.896Z,101114.53
2023-05-02T05:09:05.407Z,101114.53
2023-05-02T05:11:31.879Z,101116.06
2023-05-02T05:13:58.330Z,101118.00
2023-05-02T05:16:24.779Z,101118.63
2023-05-02T05:18:51.353Z,101122.91
2023-05-02T05:21:17.796Z,101123.69
2023-05-02T05:23:45.641Z,101112.81
2023-05-02T05:26:13.246Z,101117.97
2023-05-02T05:28:39.692Z,101123.31
2023-05-02T05:31:06.376Z,101122.47
2023-05-02T05:33:33.065Z,101127.44
2023-05-02T05:36:04.044Z,101130.22
2023-05-02T05:38:30.577Z,101130.00
2023-05-02T05:40:58.349Z,101135.97
2023-05-02T05:43:24.810Z,101131.38
2023-05-02T05:45:51.868Z,101139.41
2023-05-02T05:48:18.438Z,101133.94
2023-05-02T05:50:45.198Z,101138.34
2023-05-02T05:53:11.665Z,101139.28
2023-05-02T05:55:39.619Z,101143.41
2023-05-02T05:58:08.808Z,101150.50
2023-05-02T06:00:35.319Z,101144.88
2023-05-02T06:03:02.215Z,101149.94
2023-05-02T06:05:29.088Z,101153.47
2023-05-02T06:07:55.753Z,101147.97
2023-05-02T06:10:23.009Z,101147.88
2023-05-02T06:12:49.579Z,101152.25
2023-05-02T06:15:17.710Z,101157.13
2023-05-02T06:17:44.533Z,101158.06
2023-05-02T06:20:11.629Z,101159.69
2023-05-02T06:22:38.199Z,101167.97
2023-05-02T06:25:05.328Z,101156.94
2023-05-02T06:27:33.656Z,101166.59
2023-05-02T06:30:00.755Z,101163.22
2023-05-02T06:32:31.689Z,101167.31
2023-05-02T06:34:58.265Z,101176.88
2023-05-02T06:37:25.006Z,101170.97
2023-05-02T06:39:51.542Z,101175.81
2023-05-02T06:42:18.321Z,101170.88
2023-05-02T06:44:44.923Z,101170.13
2023-05-02T06:47:11.621Z,101173.13
2023-05-02T06:49:39.420Z,101166.38
2023-05-02T06:52:05.907Z,101166.91
2023-05-02T06:54:32.380Z,101174.59
2023-05-02T06:56:59.554Z,101179.88
2023-05-02T06:59:26.186Z,101180.63
2023-05-02T07:01:52.648Z,101169.78
2023-05-02T07:04:19.193Z,101167.03
2023-05-02T07:06:47.123Z,101175.59
2023-05-02T07:09:13.853Z,101174.06
2023-05-02T07:11:40.425Z,101172.34
2023-05-02T07:14:06.940Z,101172.94
2023-05-02T07:16:33.584Z,101169.16
2023-05-02T07:19:00.098Z,101170.91
2023-05-02T07:21:26.553Z,101168.25
2023-05-02T07:23:54.405Z,101168.25
2023-05-02T07:26:20.917Z,101172.47
2023-05-02T07:28:48.712Z,101177.06
2023-05-02T07:31:16.990Z,101179.16
2023-05-02T07:33:44.730Z,101180.47
2023-05-02T07:36:11.191Z,101179.00
2023-05-02T07:38:37.766Z,101176.72
2023-05-02T07:41:05.642Z,101177.84
2023-05-02T07:43:32.150Z,101180.97
2023-05-02T07:45:58.699Z,101174.06
2023-05-02T07:48:27.660Z,101177.78
2023-05-02T07:50:54.446Z,101172.94
2023-05-02T07:53:20.962Z,101174.41
2023-05-02T07:55:47.432Z,101169.56
2023-05-02T07:58:15.332Z,101171.91
2023-05-02T08:00:41.819Z,101172.31
2023-05-02T08:03:08.484Z,101165.94
2023-05-02T08:05:35.112Z,101166.75
2023-05-02T08:08:01.661Z,101170.69
2023-05-02T08:10:28.287Z,101174.41
2023-05-02T08:12:54.857Z,101169.81
2023-05-02T08:15:22.623Z,101166.97
2023-05-02T08:17:49.127Z,101174.03
2023-05-02T08:20:15.669Z,101174.25
2023-05-02T08:22:42.169Z,101175.56
2023-05-02T08:25:09.169Z,101176.84
2023-05-02T08:27:35.695Z,101171.47
2023-05-02T08:30:02.391Z,101174.16
2023-05-02T08:32:32.128Z,101177.59
2023-05-02T08:34:58.701Z,101168.25
2023-05-02T08:37:25.284Z,101175.13
2023-05-02T08:39:51.740Z,101171.69
2023-05-02T08:42:18.266Z,101172.97
2023-05-02T08:44:44.837Z,101172.97
2023-05-02T08:47:13.909Z,101176.97
2023-05-02T08:49:42.587Z,101183.19
2023-05-02T08:52:09.456Z,101174.38
2023-05-02T08:54:37.621Z,101176.84
2023-05-02T08:57:05.073Z,101174.72
2023-05-02T08:59:31.534Z,101173.19
2023-05-02T09:02:04.839Z,101180.06
2023-05-02T09:04:32.233Z,101174.66
2023-05-02T09:07:00.290Z,101163.84
2023-05-02T09:09:26.993Z,101173.91
2023-05-02T09:11:53.535Z,101164.53
2023-05-02T09:14:20.078Z,101171.16
2023-05-02T09:16:47.805Z,101167.38
2023-05-02T09:19:24.109Z,101170.59
2023-05-02T09:21:50.809Z,101166.66
2023-05-02T09:24:20.023Z,101164.44
2023-05-02T09:26:59.143Z,101168.38
2023-05-02T09:29:27.706Z,101165.22
2023-05-02T09:31:56.586Z,101165.59
2023-05-02T09:34:23.965Z,101171.50
2023-05-02T09:36:52.264Z,101166.63
2023-05-02T09:39:23.030Z,101169.63
2023-05-02T09:41:52.099Z,101162.50
2023-05-02T09:44:20.220Z,101176.69
2023-05-02T09:46:48.474Z,101172.19
2023-05-02T09:49:15.513Z,101181.38
2023-05-02T09:51:41.994Z,101182.09
2023-05-02T09:54:08.543Z,101176.06
2023-05-02T09:56:52.006Z,101181.16
2023-05-02T09:59:18.514Z,101178.44
2023-05-02T10:01:45.288Z,101184.13
2023-05-02T10:04:13.614Z,101181.28
2023-05-02T10:06:40.487Z,101176.84
2023-05-02T10:09:07.714Z,101177.97
2023-05-02T10:11:34.715Z,101185.59
2023-05-02T10:14:02.640Z,101183.97
2023-05-02T10:16:30.407Z,101192.25
2023-05-02T10:19:03.025Z,101188.06
2023-05-02T10:21:30.035Z,101194.72
2023-05-02T10:23:57.248Z,101202.75
2023-05-02T10:26:23.832Z,101209.19
2023-05-02T10:28:50.449Z,101196.84
2023-05-02T10:31:19.051Z,101203.41
2023-05-02T10:33:49.560Z,101205.16
2023-05-02T10:36:20.499Z,101200.00
2023-05-02T10:38:47.340Z,101200.00
2023-05-02T10:41:17.205Z,101204.25
2023-05-02T10:43:47.952Z,101202.59
2023-05-02T10:46:31.521Z,101210.59
2023-05-02T10:49:03.775Z,101213.72
2023-05-02T10:51:31.307Z,101213.00
2023-05-02T10:54:22.529Z,101206.78
2023-05-02T10:57:02.897Z,101203.41
2023-05-02T10:59:31.004Z,101210.25
2023-05-02T11:01:59.179Z,101205.50
2023-05-02T11:04:25.693Z,101214.53
2023-05-02T11:07:17.655Z,101218.13
2023-05-02T11:09:44.182Z,101211.50
2023-05-02T11:12:10.732Z,101207.34
2023-05-02T11:14:45.988Z,101212.56
2023-05-02T11:17:13.926Z,101215.09
2023-05-02T11:20:00.326Z,101209.28
2023-05-02T11:22:34.325Z,101212.69
2023-05-02T11:25:01.119Z,101214.84
2023-05-02T11:27:42.683Z,101213.81
2023-05-02T11:30:10.323Z,101219.13
2023-05-02T11:32:56.714Z,101218.19
2023-05-02T11:35:26.476Z,101213.69
2023-05-02T11:37:53.519Z,101214.81
2023-05-02T11:40:20.203Z,101217.38
2023-05-02T11:42:47.548Z,101210.91
2023-05-02T11:45:14.270Z,101219.22
2023-05-02T11:47:41.906Z,101216.06
2023-05-02T11:50:09.020Z,101217.28
2023-05-02T11:52:39.384Z,101210.69
2023-05-02T11:55:07.889Z,101210.31
2023-05-02T11:57:35.880Z,101208.47
2023-05-02T12:00:03.603Z,101212.13
2023-05-02T12:02:38.531Z,101207.00
2023-05-02T12:05:06.151Z,101207.00
2023-05-02T12:07:38.472Z,101206.78
2023-05-02T12:10:06.182Z,101213.63
2023-05-02T12:12:33.013Z,101206.06
2023-05-02T12:15:04.056Z,101208.72
2023-05-02T12:17:31.162Z,101201.88
2023-05-02T12:19:58.071Z,101203.00
2023-05-02T12:22:25.823Z,101197.00
2023-05-02T12:24:53.907Z,101198.25
2023-05-02T12:27:20.441Z,101196.56
2023-05-02T12:29:47.949Z,101188.94
2023-05-02T12:32:15.859Z,101187.34
2023-05-02T12:34:42.558Z,101196.56
2023-05-02T12:37:09.229Z,101190.66
2023-05-02T12:39:36.770Z,101202.03
2023-05-02T12:42:11.366Z,101195.69
2023-05-02T12:44:38.501Z,101196.56
2023-05-02T12:47:05.211Z,101194.59
2023-05-02T12:49:31.825Z,101199.69
2023-05-02T12:51:58.456Z,101206.94
2023-05-02T12:54:24.896Z,101196.41
2023-05-02T12:56:51.464Z,101200.31
2023-05-02T12:59:29.257Z,101207.16
2023-05-02T13:01:55.795Z,101200.44
2023-05-02T13:04:22.455Z,101212.69
2023-05-02T13:06:49.062Z,101200.94
2023-05-02T13:09:15.701Z,101196.69
2023-05-02T13:11:42.213Z,101192.63
2023-05-02T13:14:08.657Z,101199.34
2023-05-02T13:16:36.818Z,101198.97
2023-05-02T13:19:04.047Z,101188.94
2023-05-02T13:21:30.641Z,101194.81
2023-05-02T13:23:57.096Z,101198.16
2023-05-02T13:26:23.577Z,101196.91
2023-05-02T13:28:50.105Z,101197.53
2023-05-02T13:31:16.572Z,101195.91
2023-05-02T13:33:44.403Z,101203.16
2023-05-02T13:36:10.885Z,101199.72
2023-05-02T13:38:37.370Z,101198.00
2023-05-02T13:41:04.076Z,101194.09
2023-05-02T13:43:30.774Z,101189.44
2023-05-02T13:45:57.449Z,101189.44
2023-05-02T13:48:23.998Z,101176.97
2023-05-02T13:50:51.828Z,101182.59
2023-05-02T13:53:18.398Z,101177.97
2023-05-02T13:55:45.181Z,101170.63
2023-05-02T13:58:11.629Z,101172.91
2023-05-02T14:00:38.179Z,101178.56
2023-05-02T14:03:04.765Z,101169.75
2023-05-02T14:05:31.364Z,101167.41
2023-05-02T14:07:59.174Z,101174.75
2023-05-02T14:10:25.692Z,101176.47
2023-05-02T14:12:52.143Z,101177.34
2023-05-02T14:15:18.685Z,101169.75
2023-05-02T14:17:45.208Z,101161.03
2023-05-02T14:20:12.084Z,101166.91
2023-05-02T14:22:38.593Z,101163.22
2023-05-02T14:25:07.040Z,101163.34
2023-05-02T14:27:33.585Z,101161.44
2023-05-02T14:30:00.759Z,101166.34
2023-05-02T14:32:27.706Z,101162.19
2023-05-02T14:34:54.246Z,101163.25
2023-05-02T14:37:20.755Z,101156.28
2023-05-02T14:39:49.186Z,101144.38
2023-05-02T14:42:18.936Z,101154.53
2023-05-02T14:44:45.686Z,101158.81
2023-05-02T14:47:12.214Z,101153.91
2023-05-02T14:49:38.743Z,101151.50
2023-05-02T14:52:05.233Z,101146.16
2023-05-02T14:54:31.721Z,101139.84
2023-05-02T14:56:58.388Z,101137.00
2023-05-02T14:59:28.506Z,101131.38
2023-05-02T15:01:55.098Z,101124.88
2023-05-02T15:04:21.896Z,101132.81
2023-05-02T15:06:48.597Z,101131.72
2023-05-02T15:09:15.092Z,101121.22
2023-05-02T15:11:41.666Z,101123.00
2023-05-02T15:14:08.193Z,101120.91
2023-05-02T15:16:36.003Z,101124.09
2023-05-02T15:19:02.526Z,101123.91
2023-05-02T15:21:29.010Z,101110.22
2023-05-02T15:23:55.641Z,101105.91
2023-05-02T15:26:22.100Z,101104.31
2023-05-02T15:28:48.695Z,101101.94
2023-05-02T15:31:15.127Z,101100.09
2023-05-02T15:33:42.827Z,101107.88
2023-05-02T15:36:09.840Z,101112.78
2023-05-02T15:38:36.243Z,101107.00
2023-05-02T15:41:02.682Z,101107.59
2023-05-02T15:43:29.161Z,101114.94
2023-05-02T15:45:57.797Z,101108.63
2023-05-02T15:48:27.808Z,101093.69
2023-05-02T15:50:56.558Z,101102.88
2023-05-02T15:53:23.399Z,101098.13
2023-05-02T15:55:50.646Z,101098.78
2023-05-02T15:58:17.874Z,101095.84
2023-05-02T16:00:45.474Z,101090.72
2023-05-02T16:03:11.972Z,101090.69
2023-05-02T16:05:38.803Z,101092.09
2023-05-02T16:08:06.793Z,101092.34
2023-05-02T16:10:33.379Z,101093.03
2023-05-02T16:12:59.888Z,101084.69
2023-05-02T16:15:26.332Z,101081.84
2023-05-02T16:17:52.813Z,101081.41
2023-05-02T16:20:19.595Z,101087.72
2023-05-02T16:22:47.249Z,101091.22
2023-05-02T16:25:16.508Z,101093.75
2023-05-02T16:27:43.413Z,101088.06
2023-05-02T16:30:11.174Z,101091.47
2023-05-02T16:32:38.383Z,101087.69
2023-05-02T16:35:05.531Z,101089.84
2023-05-02T16:37:33.841Z,101092.69
2023-05-02T16:40:01.186Z,101097.25
2023-05-02T16:42:29.371Z,101109.94
2023-05-02T16:44:56.512Z,101114.06
2023-05-02T16:47:23.404Z,101105.84
2023-05-02T16:49:53.118Z,101111.53
2023-05-02T16:52:19.616Z,101108.38
2023-05-02T16:54:46.086Z,101102.22
2023-05-02T16:57:12.522Z,101109.81
2023-05-02T16:59:40.306Z,101112.41
2023-05-02T17:02:06.875Z,101111.47
2023-05-02T17:04:33.462Z,101113.44
2023-05-02T17:06:59.938Z,101111.03
2023-05-02T17:09:26.378Z,101122.59
2023-05-02T17:11:52.912Z,101120.81
2023-05-02T17:14:19.440Z,101120.50
2023-05-02T17:16:47.283Z,101129.59
2023-05-02T17:19:13.846Z,101129.41
2023-05-02T17:21:40.414Z,101111.63
2023-05-02T17:24:07.084Z,101104.78
2023-05-02T17:26:33.576Z,101109.41
2023-05-02T17:29:00.032Z,101109.91
2023-05-02T17:31:26.635Z,101107.03
2023-05-02T17:33:54.468Z,101103.66
2023-05-02T17:36:21.053Z,101110.31
2023-05-02T17:38:47.570Z,101105.38
2023-05-02T17:41:14.041Z,101105.97
2023-05-02T17:43:40.739Z,101107.13
2023-05-02T17:46:07.689Z,101107.25
2023-05-02T17:48:34.280Z,101106.84
2023-05-02T17:51:02.653Z,101111.38
2023-05-02T17:53:29.118Z,101115.28
2023-05-02T17:55:55.558Z,101118.19
2023-05-02T17:58:22.030Z,101103.50
2023-05-02T18:00:48.550Z,101102.56
2023-05-02T18:03:15.108Z,101104.47
2023-05-02T18:05:41.752Z,101106.31
2023-05-02T18:08:09.651Z,101103.16
2023-05-02T18:10:36.856Z,101110.66
2023-05-02T18:13:03.367Z,101105.53
2023-05-02T18:15:30.007Z,101098.91
2023-05-02T18:17:56.450Z,101104.19
2023-05-02T18:20:23.295Z,101096.69
2023-05-02T18:22:49.752Z,101101.16
2023-05-02T18:25:17.813Z,101103.13
2023-05-02T18:27:44.442Z,101101.69
2023-05-02T18:30:11.362Z,101101.91
2023-05-02T18:32:37.962Z,101103.28
2023-05-02T18:35:08.220Z,101096.56
2023-05-02T18:37:34.657Z,101106.59
2023-05-02T18:40:01.465Z,101105.72
2023-05-02T18:42:29.265Z,101104.91
2023-05-02T18:44:55.720Z,101106.50
2023-05-02T18:47:22.281Z,101115.28
2023-05-02T18:49:48.708Z,101118.38
2023-05-02T18:52:15.178Z,101121.22
2023-05-02T18:54:41.696Z,101124.22
2023-05-02T18:57:08.123Z,101126.75
2023-05-02T18:59:35.886Z,101122.81
2023-05-02T19:02:02.423Z,101118.03
2023-05-02T19:04:30.503Z,101118.78
2023-05-02T19:06:57.010Z,101118.03
2023-05-02T19:09:23.624Z,101117.31
2023-05-02T19:11:50.214Z,101114.41
2023-05-02T19:14:17.048Z,101118.25
2023-05-02T19:16:45.149Z,101117.41
2023-05-02T19:19:12.268Z,101121.44
2023-05-02T19:21:38.831Z,101130.38
2023-05-02T19:24:05.798Z,101132.22
2023-05-02T19:26:32.329Z,101136.72
2023-05-02T19:28:59.308Z,101131.47
2023-05-02T19:31:26.303Z,101133.06
2023-05-02T19:33:54.806Z,101133.25
2023-05-02T19:36:22.596Z,101137.00
2023-05-02T19:38:50.425Z,101133.09
2023-05-02T19:41:17.865Z,101135.66
2023-05-02T19:43:45.359Z,101129.31
2023-05-02T19:46:12.271Z,101137.38
2023-05-02T19:48:39.485Z,101133.22
2023-05-02T19:51:08.325Z,101142.84
2023-05-02T19:53:36.612Z,101147.53
2023-05-02T19:56:05.214Z,101140.81
2023-05-02T19:58:32.478Z,101143.38
2023-05-02T20:00:59.464Z,101136.88
2023-05-02T20:03:26.650Z,101142.25
2023-05-02T20:05:53.806Z,101136.19
2023-05-02T20:08:23.425Z,101145.19
2023-05-02T20:10:50.493Z,101143.09
2023-05-02T20:13:17.374Z,101148.09
2023-05-02T20:15:44.596Z,101142.50
2023-05-02T20:18:11.490Z,101134.19
2023-05-02T20:20:38.099Z,101135.03
2023-05-02T20:23:04.910Z,101128.69
2023-05-02T20:25:33.229Z,101128.94
2023-05-02T20:28:00.040Z,101116.09
2023-05-02T20:30:26.544Z,101116.00
2023-05-02T20:32:53.288Z,101118.16
2023-05-02T20:35:20.105Z,101114.28
2023-05-02T20:37:46.603Z,101120.50
2023-05-02T20:40:13.222Z,101116.84
2023-05-02T20:42:41.183Z,101131.97
2023-05-02T20:45:08.770Z,101130.28
2023-05-02T20:47:35.422Z,101128.53
2023-05-02T20:50:02.366Z,101108.16
2023-05-02T20:52:29.107Z,101113.16
2023-05-02T20:54:56.108Z,101121.97
2023-05-02T20:57:22.864Z,101120.13
2023-05-02T20:59:50.598Z,101120.00
2023-05-02T21:02:17.060Z,101118.06
2023-05-02T21:04:43.599Z,101124.19
2023-05-02T21:07:10.105Z,101131.84
2023-05-02T21:09:36.571Z,101130.75
2023-05-02T21:12:03.243Z,101121.00
2023-05-02T21:14:29.737Z,101120.50
2023-05-02T21:16:57.442Z,101115.84
2023-05-02T21:19:24.028Z,101119.28
2023-05-02T21:21:50.506Z,101115.59
2023-05-02T21:24:17.020Z,101119.03
2023-05-02T21:26:43.567Z,101118.78
2023-05-02T21:29:10.168Z,101124.53
2023-05-02T21:31:36.742Z,101124.16
2023-05-02T21:34:04.653Z,101121.97
2023-05-02T21:36:31.131Z,101128.06
2023-05-02T21:38:57.606Z,101132.34
2023-05-02T21:41:24.019Z,101137.72
2023-05-02T21:43:50.601Z,101128.56
2023-05-02T21:46:17.170Z,101141.97
2023-05-02T21:48:43.620Z,101137.59
2023-05-02T21:51:11.852Z,101141.50
2023-05-02T21:53:38.359Z,101136.59
2023-05-02T21:56:06.050Z,101141.75
2023-05-02T21:58:32.816Z,101141.75
2023-05-02T22:00:59.536Z,101138.94
2023-05-02T22:03:26.138Z,101147.88
2023-05-02T22:05:52.920Z,101144.94
2023-05-02T22:08:21.042Z,101149.56
2023-05-02T22:10:47.534Z,101158.84
2023-05-02T22:13:15.187Z,101151.41
2023-05-02T22:15:41.832Z,101152.00
2023-05-02T22:18:08.446Z,101154.56
2023-05-02T22:20:34.952Z,101156.41
2023-05-02T22:23:01.509Z,101160.69
2023-05-02T22:25:29.363Z,101173.50
2023-05-02T22:27:55.796Z,101173.13
2023-05-02T22:30:22.586Z,101177.03
2023-05-02T22:32:49.043Z,101176.66
2023-05-02T22:35:15.573Z,101183.50
2023-05-02T22:37:42.019Z,101189.88
2023-05-02T22:40:09.324Z,101188.88
2023-05-02T22:42:37.058Z,101191.69
2023-05-02T22:45:04.021Z,101198.25
2023-05-02T22:47:30.527Z,101194.59
2023-05-02T22:49:57.129Z,101193.25
2023-05-02T22:52:23.640Z,101193.16
2023-05-02T22:54:50.173Z,101200.09
2023-05-02T22:57:16.641Z,101206.22
2023-05-02T22:59:44.384Z,101206.22
2023-05-02T23:02:11.057Z,101210.09
2023-05-02T23:04:37.538Z,101204.59
2023-05-02T23:07:04.020Z,101203.28
2023-05-02T23:09:30.515Z,101214.75
2023-05-02T23:11:56.981Z,101207.44
2023-05-02T23:14:23.474Z,101205.47
2023-05-02T23:16:51.969Z,101200.97
2023-05-02T23:19:18.411Z,101193.84
2023-05-02T23:21:44.905Z,101193.38
2023-05-02T23:24:11.437Z,101195.47
2023-05-02T23:26:37.992Z,101202.31
2023-05-02T23:29:04.532Z,101205.75
2023-05-02T23:31:31.130Z,101200.47
2023-05-02T23:34:00.208Z,101200.22
2023-05-02T23:36:26.794Z,101201.31
2023-05-02T23:38:53.262Z,101194.44
2023-05-02T23:41:19.719Z,101191.28
2023-05-02T23:43:46.180Z,101190.09
2023-05-02T23:46:12.664Z,101195.31
2023-05-02T23:48:39.157Z,101191.41
2023-05-02T23:51:07.008Z,101182.50
2023-05-02T23:53:33.460Z,101188.63
2023-05-02T23:55:59.923Z,101181.75
2023-05-02T23:58:26.518Z,101182.63
